• Join FlightAware (Why Join?)
  • Login
  • US Flag 
02:07AM EST


 

Airport Tracker/Info


-or-


 

Live Flight TrackerFlight Track Log ✈ EJA952 ✈ 15-Jun-2013 ✈ KFOK - KMMU

Flight Track Log - Related Links

Times and Time Zones

All times are in EDT time to prevent confusion due to time zone crossing. See the EJA952 flight status page for this flight to view local times or setup timezone preferences in your user account.

Time Position Orientation Groundspeed Altitude Reporting Facility
EDT Latitude Longitude Course Direction KTS MPH feet Rate Location/Type
12:43AM 41.2167 -72.8667 323° Northwest 248 285 6,100  Level New York TRACON
12:44AM 41.2667 -72.9167 323° Northwest 250 288 6,100  Level New York TRACON
12:45AM 41.2667 -73.0000 270° West 245 282 6,100  Level New York TRACON
12:46AM 41.2667 -73.1000 270° West 254 292 6,100  Level New York TRACON
12:47AM 41.2667 -73.2000 270° West 257 296 6,100  Level New York TRACON
12:48AM 41.2667 -73.3000 270° West 261 300 6,100  Level New York TRACON
12:49AM 41.2833 -73.3833 285° West 262 302 6,100  Level New York TRACON
12:50AM 41.2833 -73.4833 270° West 260 299 6,100  Level New York TRACON
12:51AM 41.2833 -73.5833 270° West 260 299 6,100  Level New York TRACON
12:52AM 41.2667 -73.6833 258° West 265 305 6,100 -360 Level New York TRACON
12:53AM 41.2667 -73.7667 270° West 256 295 5,400 -1,080 Descending New York TRACON
12:54AM 41.2333 -73.8500 242° Southwest 257 296 4,000 -1,320 Descending New York TRACON
12:55AM 41.1833 -73.9167 225° Southwest 257 296 3,000 -540 Descending New York TRACON
12:56AM 41.1500 -73.9667 228° Southwest 243 280 3,100  Climbing New York TRACON
12:57AM 41.1000 -74.0333 225° Southwest 218 251 3,100  Level New York TRACON
12:58AM 41.0500 -74.1000 225° Southwest 217 250 3,100 -60 Level New York TRACON
12:59AM 41.0167 -74.1500 229° Southwest 222 255 3,000 -60 Descending New York TRACON
01:00AM 40.9667 -74.2167 225° Southwest 228 262 3,000  Level New York TRACON
01:02AM 40.8896 -74.3863 239° Southwest  Level FlightAware Approximate
01:09AM 40.7993 -74.4149 163° South  Level Estimated
01:10AM 40.7993 -74.4149 163° South  Level Estimated
01:11AM 40.7993 -74.4149 163° South  Level Estimated
01:12AM 40.7993 -74.4149 163° South  Level Estimated